Kyoto Maru — JD3149 — position and weather

sailwx.info

Track history (hours):
 
Tides and Currents Weather Stations Pressure Air Temp Water Temp Dewpoint Dewpoint Depression Visibility Wind Speed Wind Dir Waves Ship Positions

Kyoto Maru

Last reported at 2016-May-31 07:27 UTC. Time now 2016-May-31 20:01 UTC.
Position N 35°27' E 139°39'.

Length 34 m; draft 3.8 m.

Type: Tug. MMSI: 431002219.

Date/timePositionNaut miles runAvg speedWind from/ knotsBaromVisibWave heightAir tempDewpointWater temp
2016-May-31 07:27N 35°27' E 139°39'2 2.1
2016-May-31 06:33N 35°28' E 139°41'2 0.9
2016-May-31 04:34N 35°27' E 139°39'0 0.0
2016-May-31 03:33N 35°27' E 139°39'0 0.0
2016-May-31 02:33N 35°27' E 139°39'0 0.0
2016-May-31 01:34N 35°27' E 139°39'0 0.0
2016-May-31 00:33N 35°27' E 139°39'0 0.0
2016-May-30 23:33N 35°27' E 139°39'2 1.8
2016-May-30 22:34N 35°28' E 139°41'3 3.5
2016-May-30 21:33N 35°26' E 139°44'4 4.1
2016-May-30 20:34N 35°27' E 139°39'0 0.0
2016-May-30 19:34N 35°27' E 139°39'0 0.0
2016-May-30 18:34N 35°27' E 139°39'0 0.0
2016-May-30 17:34N 35°27' E 139°39'0 0.0
2016-May-30 16:34N 35°27' E 139°39'0 0.0
2016-May-30 15:34N 35°27' E 139°39'0 0.0
2016-May-30 14:34N 35°27' E 139°39'0 0.0
2016-May-30 13:33N 35°27' E 139°39'0 0.0
2016-May-30 12:34N 35°27' E 139°39'0 0.0
2016-May-30 11:33N 35°27' E 139°39'0 0.0
2016-May-30 10:33N 35°27' E 139°39'2 2.0
2016-May-30 09:34N 35°26' E 139°42'1 1.3
2016-May-30 08:34N 35°25' E 139°41'2 2.0
2016-May-30 07:33N 35°27' E 139°39'0 0.0
2016-May-30 06:34N 35°27' E 139°39'0 0.0
2016-May-30 05:34N 35°27' E 139°39'0 0.0
2016-May-30 04:33N 35°27' E 139°39'0 0.0
2016-May-30 03:33N 35°27' E 139°39'0 0.0
2016-May-30 02:34N 35°27' E 139°39'0 0.0
2016-May-30 01:33N 35°27' E 139°39'1 1.1
2016-May-30 00:34N 35°28' E 139°40'5 4.5
2016-May-29 23:33N 35°23' E 139°40'1 0.7
2016-May-29 22:34N 35°24' E 139°40'2 2.2
2016-May-29 21:33N 35°26' E 139°42'2 2.3
2016-May-29 20:33N 35°27' E 139°39'0 0.0
2016-May-29 19:33N 35°27' E 139°39'0 0.0
2016-May-29 18:33N 35°27' E 139°39'0 0.0
2016-May-29 17:34N 35°27' E 139°39'0 0.0
2016-May-29 16:34N 35°27' E 139°39'0 0.0
2016-May-29 15:34N 35°27' E 139°39'0 0.0
2016-May-29 14:34N 35°27' E 139°39'0 0.0
2016-May-29 13:33N 35°27' E 139°39'0 0.0
2016-May-29 12:34N 35°27' E 139°39'0 0.0
2016-May-29 11:34N 35°27' E 139°39'0 0.0
2016-May-29 10:33N 35°27' E 139°39'0 0.0
2016-May-29 09:34N 35°27' E 139°39'0 0.0
2016-May-29 08:33N 35°27' E 139°39'5 4.8
2016-May-29 07:34N 35°29' E 139°45'0 0.4
2016-May-29 06:33N 35°29' E 139°45'0 0.0
2016-May-29 05:34N 35°29' E 139°45'2 1.8
2016-May-29 04:34N 35°30' E 139°47'0 0.4
2016-May-29 03:34N 35°30' E 139°47'0 0.0
2016-May-29 02:33N 35°30' E 139°47'0 0.4
2016-May-29 01:34N 35°29' E 139°47'1 0.9
2016-May-29 00:33N 35°29' E 139°46'0 0.1
2016-May-28 23:34N 35°29' E 139°46'4 4.2
2016-May-28 22:33N 35°28' E 139°41'4 3.5
2016-May-28 21:34N 35°26' E 139°45'4 4.4
2016-May-28 20:34N 35°27' E 139°39'0 0.0
2016-May-28 19:33N 35°27' E 139°39'0 0.0
2016-May-28 18:33N 35°27' E 139°39'0 0.0
2016-May-28 17:34N 35°27' E 139°39'0 0.0
2016-May-28 16:33N 35°27' E 139°39'0 0.0
2016-May-28 15:34N 35°27' E 139°39'0 0.0
2016-May-28 14:34N 35°27' E 139°39'0 0.0
2016-May-28 13:34N 35°27' E 139°39'0 0.0
2016-May-28 12:33N 35°27' E 139°39'0 0.0
2016-May-28 11:34N 35°27' E 139°39'0 0.0
2016-May-28 10:34N 35°27' E 139°39'0 0.0
2016-May-28 09:33N 35°27' E 139°39'1 0.9
2016-May-28 08:34N 35°26' E 139°40'1 1.1
2016-May-28 07:33N 35°28' E 139°40'0 0.0
2016-May-28 06:33N 35°28' E 139°40'1 1.5
2016-May-28 05:34N 35°27' E 139°42'2 1.9
2016-May-28 04:34N 35°27' E 139°39'0 0.0
2016-May-28 03:33N 35°27' E 139°39'0 0.0
2016-May-28 02:33N 35°27' E 139°39'0 0.0
2016-May-28 01:34N 35°27' E 139°39'0 0.0
2016-May-28 00:33N 35°27' E 139°39'0 0.0
2016-May-27 23:34N 35°27' E 139°39'0 0.0
2016-May-27 22:34N 35°27' E 139°39'3 3.0
2016-May-27 21:33N 35°26' E 139°43'3 3.0
2016-May-27 20:34N 35°27' E 139°39'0 0.0
2016-May-27 19:33N 35°27' E 139°39'0 0.0
2016-May-27 18:34N 35°27' E 139°39'0 0.0
2016-May-27 17:34N 35°27' E 139°39'0 0.0
2016-May-27 16:34N 35°27' E 139°39'0 0.0
2016-May-27 15:34N 35°27' E 139°39'0 0.0
2016-May-27 14:34N 35°27' E 139°39'0 0.0
2016-May-27 13:33N 35°27' E 139°39'0 0.0
2016-May-27 12:33N 35°27' E 139°39'0 0.0
2016-May-27 11:33N 35°27' E 139°39'0 0.0
2016-May-27 10:34N 35°27' E 139°39'3 3.2
2016-May-27 09:34N 35°24' E 139°41'1 1.2
2016-May-27 08:34N 35°23' E 139°41'0 0.0
2016-May-27 07:33N 35°23' E 139°41'2 1.8
2016-May-27 06:34N 35°24' E 139°39'2 2.1
2016-May-27 05:33N 35°24' E 139°42'3 3.3
2016-May-27 04:34N 35°27' E 139°39'0 0.0
2016-May-27 03:34N 35°27' E 139°39'0 0.0
2016-May-27 02:33N 35°27' E 139°39'4 4.5
2016-May-27 01:34N 35°29' E 139°44'1 0.6
2016-May-27 00:34N 35°28' E 139°45'1 1.3
2016-May-26 23:33N 35°27' E 139°46'2 1.9
2016-May-26 22:33N 35°29' E 139°44'5 4.7
2016-May-26 21:33N 35°27' E 139°39'0 0.0
2016-May-26 20:34N 35°27' E 139°39'0 0.0
2016-May-26 19:33N 35°27' E 139°39'0 0.0
2016-May-26 18:34N 35°27' E 139°39'0 0.0
2016-May-26 17:33N 35°27' E 139°39'0 0.0
2016-May-26 16:34N 35°27' E 139°39'0 0.0
2016-May-26 15:33N 35°27' E 139°39'0 0.0
2016-May-26 14:34N 35°27' E 139°39'0 0.0
2016-May-26 13:34N 35°27' E 139°39'0 0.0
2016-May-26 12:34N 35°27' E 139°39'0 0.0
2016-May-26 11:34N 35°27' E 139°39'0 0.0
2016-May-26 10:34N 35°27' E 139°39'0 0.0
2016-May-26 09:34N 35°27' E 139°39'0 0.0
2016-May-26 08:33N 35°27' E 139°39'0 0.0
2016-May-26 07:34N 35°27' E 139°39'0 0.0
2016-May-26 06:34N 35°27' E 139°39'0 0.0
2016-May-26 05:34N 35°27' E 139°39'0 0.0
2016-May-26 04:34N 35°27' E 139°39'0 0.0
2016-May-26 03:33N 35°27' E 139°39'0 0.0
2016-May-26 02:34N 35°27' E 139°39'0 0.0
2016-May-26 01:34N 35°27' E 139°39'0 0.0
2016-May-26 00:33N 35°27' E 139°39'0 0.0
2016-May-25 23:33N 35°27' E 139°39'2 1.7
2016-May-25 22:33N 35°27' E 139°41'3 3.2
2016-May-25 21:34N 35°29' E 139°44'1 1.2
2016-May-25 20:34N 35°28' E 139°45'0 0.3
2016-May-25 19:33N 35°28' E 139°45'1 1.0
2016-May-25 18:33N 35°29' E 139°44'5 4.6
2016-May-25 17:34N 35°27' E 139°39'0 0.0
2016-May-25 16:33N 35°27' E 139°39'0 0.0
2016-May-25 15:34N 35°27' E 139°39'0 0.0
2016-May-25 14:33N 35°27' E 139°39'0 0.0
2016-May-25 13:34N 35°27' E 139°39'0 0.0
2016-May-25 12:34N 35°27' E 139°39'0 0.0
2016-May-25 11:34N 35°27' E 139°39'0 0.0
2016-May-25 10:34N 35°27' E 139°39'0 0.0
2016-May-25 09:33N 35°27' E 139°39'0 0.0
2016-May-25 08:33N 35°27' E 139°39'3 3.1
2016-May-25 07:34N 35°24' E 139°38'3 2.9
2016-May-25 06:33N 35°24' E 139°42'3 3.3
2016-May-25 05:34N 35°27' E 139°39'0 0.0
2016-May-25 04:34N 35°27' E 139°39'0 0.0
2016-May-25 03:34N 35°27' E 139°39'0 0.0
2016-May-25 02:34N 35°27' E 139°39'0 0.0
2016-May-25 01:34N 35°27' E 139°39'0 0.0
2016-May-25 00:33N 35°27' E 139°39'1 0.9
2016-May-24 23:33N 35°27' E 139°40'4 3.8
2016-May-24 22:34N 35°27' E 139°45'1 1.0
2016-May-24 21:34N 35°28' E 139°44'2 2.4
2016-May-24 20:34N 35°30' E 139°46'6 6.3
2016-May-24 19:33N 35°27' E 139°39'0 0.0
2016-May-24 18:34N 35°27' E 139°39'0 0.0
2016-May-24 17:34N 35°27' E 139°39'0 0.0
2016-May-24 16:34N 35°27' E 139°39'0 0.0
2016-May-24 15:34N 35°27' E 139°39'0 0.0
2016-May-24 14:34N 35°27' E 139°39'0 0.0
2016-May-24 13:33N 35°27' E 139°39'0 0.0
2016-May-24 12:34N 35°27' E 139°39'0 0.0
2016-May-24 11:34N 35°27' E 139°39'0 0.0
2016-May-24 10:34N 35°27' E 139°39'0 0.0
2016-May-24 09:33N 35°27' E 139°39'0 0.0
2016-May-24 08:33N 35°27' E 139°39'0 0.0
2016-May-24 07:33N 35°27' E 139°39'0 0.0
2016-May-24 06:33N 35°27' E 139°39'0 0.0
2016-May-24 05:34N 35°27' E 139°39'3 2.7
2016-May-24 04:34N 35°27' E 139°43'2 1.7
2016-May-24 03:33N 35°28' E 139°44'0 0.3
2016-May-24 02:33N 35°28' E 139°44'1 0.9
2016-May-24 01:33N 35°28' E 139°45'0 0.0
2016-May-24 00:33N 35°28' E 139°45'0 0.0
2016-May-23 23:34N 35°28' E 139°45'1 1.4
2016-May-23 22:34N 35°30' E 139°46'4 3.6
2016-May-23 21:33N 35°27' E 139°44'4 3.6
2016-May-23 20:34N 35°27' E 139°39'0 0.0
2016-May-23 19:33N 35°27' E 139°39'0 0.0
2016-May-23 18:34N 35°27' E 139°39'0 0.0
2016-May-23 17:34N 35°27' E 139°39'0 0.0
2016-May-23 16:34N 35°27' E 139°39'0 0.0
2016-May-23 15:34N 35°27' E 139°39'0 0.0
2016-May-23 14:34N 35°27' E 139°39'0 0.0
2016-May-23 13:34N 35°27' E 139°39'0 0.0
2016-May-23 12:33N 35°27' E 139°39'0 0.0
2016-May-23 11:33N 35°27' E 139°39'0 0.0
2016-May-23 10:34N 35°27' E 139°39'4 3.6
2016-May-23 09:34N 35°24' E 139°41'1 1.1
2016-May-23 08:34N 35°23' E 139°41'2 1.8
2016-May-23 07:34N 35°24' E 139°42'3 3.3
2016-May-23 06:34N 35°27' E 139°39'0 0.0
2016-May-23 05:34N 35°27' E 139°39'0 0.0
2016-May-23 04:34N 35°27' E 139°39'0 0.0
2016-May-23 03:34N 35°27' E 139°39'0 0.0
2016-May-23 02:34N 35°27' E 139°39'0 0.0
2016-May-23 01:34N 35°27' E 139°39'0 0.0
2016-May-23 00:34N 35°27' E 139°39'4 3.6
2016-May-22 23:34N 35°29' E 139°43'0 0.5
2016-May-22 22:34N 35°29' E 139°43'3 3.0
2016-May-22 21:34N 35°27' E 139°41'1 1.2
2016-May-22 20:33N 35°27' E 139°39'0 0.0
2016-May-22 19:34N 35°27' E 139°39'0 0.0
2016-May-22 18:34N 35°27' E 139°39'0 0.0
2016-May-22 17:33N 35°27' E 139°39'0 0.0
2016-May-22 16:33N 35°27' E 139°39'0 0.0
2016-May-22 15:34N 35°27' E 139°39'0 0.0
2016-May-22 14:33N 35°27' E 139°39'0 0.0
2016-May-22 13:33N 35°27' E 139°39'0 0.0
2016-May-22 12:34N 35°27' E 139°39'0 0.0
2016-May-22 11:34N 35°27' E 139°39'0 0.0
2016-May-22 10:34N 35°27' E 139°39'0 0.0
2016-May-22 09:34N 35°27' E 139°39'0 0.0
2016-May-22 08:34N 35°27' E 139°39'0 0.0
2016-May-22 07:34N 35°27' E 139°39'0 0.0
2016-May-22 06:34N 35°27' E 139°39'0 0.0
2016-May-22 05:34N 35°27' E 139°39'0 0.0
2016-May-22 04:34N 35°27' E 139°39'0 0.0
2016-May-22 03:34N 35°27' E 139°39'0 0.0
2016-May-22 02:34N 35°27' E 139°39'0 0.0
2016-May-22 01:34N 35°27' E 139°39'0 0.0
2016-May-22 00:34N 35°27' E 139°39'0 0.0
2016-May-21 23:34N 35°27' E 139°39'0 0.0
2016-May-21 22:34N 35°27' E 139°39'0 0.0
2016-May-21 21:33N 35°27' E 139°39'0 0.0
2016-May-21 20:34N 35°27' E 139°39'0 0.0
2016-May-21 19:33N 35°27' E 139°39'0 0.0
2016-May-21 18:33N 35°27' E 139°39'0 0.0
2016-May-21 17:34N 35°27' E 139°39'0 0.0
2016-May-21 16:34N 35°27' E 139°39'0 0.0
2016-May-21 15:33N 35°27' E 139°39'0 0.0
2016-May-21 14:33N 35°27' E 139°39'0 0.0
2016-May-21 13:34N 35°27' E 139°39'0 0.0
2016-May-21 12:33N 35°27' E 139°39'0 0.0
2016-May-21 11:34N 35°27' E 139°39'0 0.0
2016-May-21 10:34N 35°27' E 139°39'0 0.0
2016-May-21 09:34N 35°27' E 139°39'0 0.0
2016-May-21 08:33N 35°27' E 139°39'0 0.0
2016-May-21 07:33N 35°27' E 139°39'  
Track history (hours):
 
Tides and Currents Weather Stations Pressure Air Temp Water Temp Dewpoint Dewpoint Depression Visibility Wind Speed Wind Dir Waves Ship Positions

Kyoto Maru

Last reported at 2016-May-31 07:27 UTC. Time now 2016-May-31 20:01 UTC.
Position N 35°27' E 139°39'.

Length 34 m; draft 3.8 m.

Type: Tug. MMSI: 431002219.

Date/timePositionNaut miles runAvg speedWind from/ knotsBaromVisibWave heightAir tempDewpointWater temp
2016-May-31 07:27N 35°27' E 139°39'2 2.1
2016-May-31 06:33N 35°28' E 139°41'2 0.9
2016-May-31 04:34N 35°27' E 139°39'0 0.0
2016-May-31 03:33N 35°27' E 139°39'0 0.0
2016-May-31 02:33N 35°27' E 139°39'0 0.0
2016-May-31 01:34N 35°27' E 139°39'0 0.0
2016-May-31 00:33N 35°27' E 139°39'0 0.0
2016-May-30 23:33N 35°27' E 139°39'2 1.8
2016-May-30 22:34N 35°28' E 139°41'3 3.5
2016-May-30 21:33N 35°26' E 139°44'4 4.1
2016-May-30 20:34N 35°27' E 139°39'0 0.0
2016-May-30 19:34N 35°27' E 139°39'0 0.0
2016-May-30 18:34N 35°27' E 139°39'0 0.0
2016-May-30 17:34N 35°27' E 139°39'0 0.0
2016-May-30 16:34N 35°27' E 139°39'0 0.0
2016-May-30 15:34N 35°27' E 139°39'0 0.0
2016-May-30 14:34N 35°27' E 139°39'0 0.0
2016-May-30 13:33N 35°27' E 139°39'0 0.0
2016-May-30 12:34N 35°27' E 139°39'0 0.0
2016-May-30 11:33N 35°27' E 139°39'0 0.0
2016-May-30 10:33N 35°27' E 139°39'2 2.0
2016-May-30 09:34N 35°26' E 139°42'1 1.3
2016-May-30 08:34N 35°25' E 139°41'2 2.0
2016-May-30 07:33N 35°27' E 139°39'0 0.0
2016-May-30 06:34N 35°27' E 139°39'0 0.0
2016-May-30 05:34N 35°27' E 139°39'0 0.0
2016-May-30 04:33N 35°27' E 139°39'0 0.0
2016-May-30 03:33N 35°27' E 139°39'0 0.0
2016-May-30 02:34N 35°27' E 139°39'0 0.0
2016-May-30 01:33N 35°27' E 139°39'1 1.1
2016-May-30 00:34N 35°28' E 139°40'5 4.5
2016-May-29 23:33N 35°23' E 139°40'1 0.7
2016-May-29 22:34N 35°24' E 139°40'2 2.2
2016-May-29 21:33N 35°26' E 139°42'2 2.3
2016-May-29 20:33N 35°27' E 139°39'0 0.0
2016-May-29 19:33N 35°27' E 139°39'0 0.0
2016-May-29 18:33N 35°27' E 139°39'0 0.0
2016-May-29 17:34N 35°27' E 139°39'0 0.0
2016-May-29 16:34N 35°27' E 139°39'0 0.0
2016-May-29 15:34N 35°27' E 139°39'0 0.0
2016-May-29 14:34N 35°27' E 139°39'0 0.0
2016-May-29 13:33N 35°27' E 139°39'0 0.0
2016-May-29 12:34N 35°27' E 139°39'0 0.0
2016-May-29 11:34N 35°27' E 139°39'0 0.0
2016-May-29 10:33N 35°27' E 139°39'0 0.0
2016-May-29 09:34N 35°27' E 139°39'0 0.0
2016-May-29 08:33N 35°27' E 139°39'5 4.8
2016-May-29 07:34N 35°29' E 139°45'0 0.4
2016-May-29 06:33N 35°29' E 139°45'0 0.0
2016-May-29 05:34N 35°29' E 139°45'2 1.8
2016-May-29 04:34N 35°30' E 139°47'0 0.4
2016-May-29 03:34N 35°30' E 139°47'0 0.0
2016-May-29 02:33N 35°30' E 139°47'0 0.4
2016-May-29 01:34N 35°29' E 139°47'1 0.9
2016-May-29 00:33N 35°29' E 139°46'0 0.1
2016-May-28 23:34N 35°29' E 139°46'4 4.2
2016-May-28 22:33N 35°28' E 139°41'4 3.5
2016-May-28 21:34N 35°26' E 139°45'4 4.4
2016-May-28 20:34N 35°27' E 139°39'0 0.0
2016-May-28 19:33N 35°27' E 139°39'0 0.0
2016-May-28 18:33N 35°27' E 139°39'0 0.0
2016-May-28 17:34N 35°27' E 139°39'0 0.0
2016-May-28 16:33N 35°27' E 139°39'0 0.0
2016-May-28 15:34N 35°27' E 139°39'0 0.0
2016-May-28 14:34N 35°27' E 139°39'0 0.0
2016-May-28 13:34N 35°27' E 139°39'0 0.0
2016-May-28 12:33N 35°27' E 139°39'0 0.0
2016-May-28 11:34N 35°27' E 139°39'0 0.0
2016-May-28 10:34N 35°27' E 139°39'0 0.0
2016-May-28 09:33N 35°27' E 139°39'1 0.9
2016-May-28 08:34N 35°26' E 139°40'1 1.1
2016-May-28 07:33N 35°28' E 139°40'0 0.0
2016-May-28 06:33N 35°28' E 139°40'1 1.5
2016-May-28 05:34N 35°27' E 139°42'2 1.9
2016-May-28 04:34N 35°27' E 139°39'0 0.0
2016-May-28 03:33N 35°27' E 139°39'0 0.0
2016-May-28 02:33N 35°27' E 139°39'0 0.0
2016-May-28 01:34N 35°27' E 139°39'0 0.0
2016-May-28 00:33N 35°27' E 139°39'0 0.0
2016-May-27 23:34N 35°27' E 139°39'0 0.0
2016-May-27 22:34N 35°27' E 139°39'3 3.0
2016-May-27 21:33N 35°26' E 139°43'3 3.0
2016-May-27 20:34N 35°27' E 139°39'0 0.0
2016-May-27 19:33N 35°27' E 139°39'0 0.0
2016-May-27 18:34N 35°27' E 139°39'0 0.0
2016-May-27 17:34N 35°27' E 139°39'0 0.0
2016-May-27 16:34N 35°27' E 139°39'0 0.0
2016-May-27 15:34N 35°27' E 139°39'0 0.0
2016-May-27 14:34N 35°27' E 139°39'0 0.0
2016-May-27 13:33N 35°27' E 139°39'0 0.0
2016-May-27 12:33N 35°27' E 139°39'0 0.0
2016-May-27 11:33N 35°27' E 139°39'0 0.0
2016-May-27 10:34N 35°27' E 139°39'3 3.2
2016-May-27 09:34N 35°24' E 139°41'1 1.2
2016-May-27 08:34N 35°23' E 139°41'0 0.0
2016-May-27 07:33N 35°23' E 139°41'2 1.8
2016-May-27 06:34N 35°24' E 139°39'2 2.1
2016-May-27 05:33N 35°24' E 139°42'3 3.3
2016-May-27 04:34N 35°27' E 139°39'0 0.0
2016-May-27 03:34N 35°27' E 139°39'0 0.0
2016-May-27 02:33N 35°27' E 139°39'4 4.5
2016-May-27 01:34N 35°29' E 139°44'1 0.6
2016-May-27 00:34N 35°28' E 139°45'1 1.3
2016-May-26 23:33N 35°27' E 139°46'2 1.9
2016-May-26 22:33N 35°29' E 139°44'5 4.7
2016-May-26 21:33N 35°27' E 139°39'0 0.0
2016-May-26 20:34N 35°27' E 139°39'0 0.0
2016-May-26 19:33N 35°27' E 139°39'0 0.0
2016-May-26 18:34N 35°27' E 139°39'0 0.0
2016-May-26 17:33N 35°27' E 139°39'0 0.0
2016-May-26 16:34N 35°27' E 139°39'0 0.0
2016-May-26 15:33N 35°27' E 139°39'0 0.0
2016-May-26 14:34N 35°27' E 139°39'0 0.0
2016-May-26 13:34N 35°27' E 139°39'0 0.0
2016-May-26 12:34N 35°27' E 139°39'0 0.0
2016-May-26 11:34N 35°27' E 139°39'0 0.0
2016-May-26 10:34N 35°27' E 139°39'0 0.0
2016-May-26 09:34N 35°27' E 139°39'0 0.0
2016-May-26 08:33N 35°27' E 139°39'0 0.0
2016-May-26 07:34N 35°27' E 139°39'0 0.0
2016-May-26 06:34N 35°27' E 139°39'0 0.0
2016-May-26 05:34N 35°27' E 139°39'0 0.0
2016-May-26 04:34N 35°27' E 139°39'0 0.0
2016-May-26 03:33N 35°27' E 139°39'0 0.0
2016-May-26 02:34N 35°27' E 139°39'0 0.0
2016-May-26 01:34N 35°27' E 139°39'0 0.0
2016-May-26 00:33N 35°27' E 139°39'0 0.0
2016-May-25 23:33N 35°27' E 139°39'2 1.7
2016-May-25 22:33N 35°27' E 139°41'3 3.2
2016-May-25 21:34N 35°29' E 139°44'1 1.2
2016-May-25 20:34N 35°28' E 139°45'0 0.3
2016-May-25 19:33N 35°28' E 139°45'1 1.0
2016-May-25 18:33N 35°29' E 139°44'5 4.6
2016-May-25 17:34N 35°27' E 139°39'0 0.0
2016-May-25 16:33N 35°27' E 139°39'0 0.0
2016-May-25 15:34N 35°27' E 139°39'0 0.0
2016-May-25 14:33N 35°27' E 139°39'0 0.0
2016-May-25 13:34N 35°27' E 139°39'0 0.0
2016-May-25 12:34N 35°27' E 139°39'0 0.0
2016-May-25 11:34N 35°27' E 139°39'0 0.0
2016-May-25 10:34N 35°27' E 139°39'0 0.0
2016-May-25 09:33N 35°27' E 139°39'0 0.0
2016-May-25 08:33N 35°27' E 139°39'3 3.1
2016-May-25 07:34N 35°24' E 139°38'3 2.9
2016-May-25 06:33N 35°24' E 139°42'3 3.3
2016-May-25 05:34N 35°27' E 139°39'0 0.0
2016-May-25 04:34N 35°27' E 139°39'0 0.0
2016-May-25 03:34N 35°27' E 139°39'0 0.0
2016-May-25 02:34N 35°27' E 139°39'0 0.0
2016-May-25 01:34N 35°27' E 139°39'0 0.0
2016-May-25 00:33N 35°27' E 139°39'1 0.9
2016-May-24 23:33N 35°27' E 139°40'4 3.8
2016-May-24 22:34N 35°27' E 139°45'1 1.0
2016-May-24 21:34N 35°28' E 139°44'2 2.4
2016-May-24 20:34N 35°30' E 139°46'6 6.3
2016-May-24 19:33N 35°27' E 139°39'0 0.0
2016-May-24 18:34N 35°27' E 139°39'0 0.0
2016-May-24 17:34N 35°27' E 139°39'0 0.0
2016-May-24 16:34N 35°27' E 139°39'0 0.0
2016-May-24 15:34N 35°27' E 139°39'0 0.0
2016-May-24 14:34N 35°27' E 139°39'0 0.0
2016-May-24 13:33N 35°27' E 139°39'0 0.0
2016-May-24 12:34N 35°27' E 139°39'0 0.0
2016-May-24 11:34N 35°27' E 139°39'0 0.0
2016-May-24 10:34N 35°27' E 139°39'0 0.0
2016-May-24 09:33N 35°27' E 139°39'0 0.0
2016-May-24 08:33N 35°27' E 139°39'0 0.0
2016-May-24 07:33N 35°27' E 139°39'0 0.0
2016-May-24 06:33N 35°27' E 139°39'0 0.0
2016-May-24 05:34N 35°27' E 139°39'3 2.7
2016-May-24 04:34N 35°27' E 139°43'2 1.7
2016-May-24 03:33N 35°28' E 139°44'0 0.3
2016-May-24 02:33N 35°28' E 139°44'1 0.9
2016-May-24 01:33N 35°28' E 139°45'0 0.0
2016-May-24 00:33N 35°28' E 139°45'0 0.0
2016-May-23 23:34N 35°28' E 139°45'1 1.4
2016-May-23 22:34N 35°30' E 139°46'4 3.6
2016-May-23 21:33N 35°27' E 139°44'4 3.6
2016-May-23 20:34N 35°27' E 139°39'0 0.0
2016-May-23 19:33N 35°27' E 139°39'0 0.0
2016-May-23 18:34N 35°27' E 139°39'0 0.0
2016-May-23 17:34N 35°27' E 139°39'0 0.0
2016-May-23 16:34N 35°27' E 139°39'0 0.0
2016-May-23 15:34N 35°27' E 139°39'0 0.0
2016-May-23 14:34N 35°27' E 139°39'0 0.0
2016-May-23 13:34N 35°27' E 139°39'0 0.0
2016-May-23 12:33N 35°27' E 139°39'0 0.0
2016-May-23 11:33N 35°27' E 139°39'0 0.0
2016-May-23 10:34N 35°27' E 139°39'4 3.6
2016-May-23 09:34N 35°24' E 139°41'1 1.1
2016-May-23 08:34N 35°23' E 139°41'2 1.8
2016-May-23 07:34N 35°24' E 139°42'3 3.3
2016-May-23 06:34N 35°27' E 139°39'0 0.0
2016-May-23 05:34N 35°27' E 139°39'0 0.0
2016-May-23 04:34N 35°27' E 139°39'0 0.0
2016-May-23 03:34N 35°27' E 139°39'0 0.0
2016-May-23 02:34N 35°27' E 139°39'0 0.0
2016-May-23 01:34N 35°27' E 139°39'0 0.0
2016-May-23 00:34N 35°27' E 139°39'4 3.6
2016-May-22 23:34N 35°29' E 139°43'0 0.5
2016-May-22 22:34N 35°29' E 139°43'3 3.0
2016-May-22 21:34N 35°27' E 139°41'1 1.2
2016-May-22 20:33N 35°27' E 139°39'0 0.0
2016-May-22 19:34N 35°27' E 139°39'0 0.0
2016-May-22 18:34N 35°27' E 139°39'0 0.0
2016-May-22 17:33N 35°27' E 139°39'0 0.0
2016-May-22 16:33N 35°27' E 139°39'0 0.0
2016-May-22 15:34N 35°27' E 139°39'0 0.0
2016-May-22 14:33N 35°27' E 139°39'0 0.0
2016-May-22 13:33N 35°27' E 139°39'0 0.0
2016-May-22 12:34N 35°27' E 139°39'0 0.0
2016-May-22 11:34N 35°27' E 139°39'0 0.0
2016-May-22 10:34N 35°27' E 139°39'0 0.0
2016-May-22 09:34N 35°27' E 139°39'0 0.0
2016-May-22 08:34N 35°27' E 139°39'0 0.0
2016-May-22 07:34N 35°27' E 139°39'0 0.0
2016-May-22 06:34N 35°27' E 139°39'0 0.0
2016-May-22 05:34N 35°27' E 139°39'0 0.0
2016-May-22 04:34N 35°27' E 139°39'0 0.0
2016-May-22 03:34N 35°27' E 139°39'0 0.0
2016-May-22 02:34N 35°27' E 139°39'0 0.0
2016-May-22 01:34N 35°27' E 139°39'0 0.0
2016-May-22 00:34N 35°27' E 139°39'0 0.0
2016-May-21 23:34N 35°27' E 139°39'0 0.0
2016-May-21 22:34N 35°27' E 139°39'0 0.0
2016-May-21 21:33N 35°27' E 139°39'0 0.0
2016-May-21 20:34N 35°27' E 139°39'0 0.0
2016-May-21 19:33N 35°27' E 139°39'0 0.0
2016-May-21 18:33N 35°27' E 139°39'0 0.0
2016-May-21 17:34N 35°27' E 139°39'0 0.0
2016-May-21 16:34N 35°27' E 139°39'0 0.0
2016-May-21 15:33N 35°27' E 139°39'0 0.0
2016-May-21 14:33N 35°27' E 139°39'0 0.0
2016-May-21 13:34N 35°27' E 139°39'0 0.0
2016-May-21 12:33N 35°27' E 139°39'0 0.0
2016-May-21 11:34N 35°27' E 139°39'0 0.0
2016-May-21 10:34N 35°27' E 139°39'0 0.0
2016-May-21 09:34N 35°27' E 139°39'0 0.0
2016-May-21 08:33N 35°27' E 139°39'0 0.0
2016-May-21 07:33N 35°27' E 139°39'  

Dump ship's entire track history